createdAt,value
2022-10-02T00:00:20.202Z,5.38
2022-10-02T00:03:18.336Z,4.95
2022-10-02T00:06:03.059Z,5.22
2022-10-02T00:08:41.565Z,4.70
2022-10-02T00:11:40.584Z,5.18
2022-10-02T00:14:16.631Z,3.90
2022-10-02T00:16:53.711Z,4.70
2022-10-02T00:19:21.051Z,4.20
2022-10-02T00:21:59.017Z,4.50
2022-10-02T00:24:52.944Z,4.72
2022-10-02T00:27:54.796Z,5.45
2022-10-02T00:30:21.669Z,4.28
2022-10-02T00:33:32.784Z,4.72
2022-10-02T00:36:20.572Z,4.50
2022-10-02T00:39:05.787Z,4.82
2022-10-02T00:42:24.415Z,4.78
2022-10-02T00:45:19.001Z,4.10
2022-10-02T00:48:14.096Z,4.28
2022-10-02T00:51:44.942Z,4.10
2022-10-02T00:54:42.128Z,5.47
2022-10-02T00:57:37.919Z,4.32
2022-10-02T01:00:19.639Z,4.72
2022-10-02T01:03:18.054Z,4.65
2022-10-02T01:05:45.508Z,5.20
2022-10-02T01:08:13.965Z,5.40
2022-10-02T01:10:41.663Z,5.85
2022-10-02T01:13:09.911Z,4.88
2022-10-02T01:15:46.548Z,5.25
2022-10-02T01:18:15.366Z,6.40
2022-10-02T01:20:50.305Z,4.80
2022-10-02T01:24:13.053Z,5.15
2022-10-02T01:26:39.870Z,4.88
2022-10-02T01:29:06.699Z,6.47
2022-10-02T01:31:36.604Z,6.18
2022-10-02T01:34:04.767Z,5.30
2022-10-02T01:36:32.952Z,5.32
2022-10-02T01:39:02.145Z,5.38
2022-10-02T01:41:29.505Z,5.22
2022-10-02T01:44:02.714Z,5.63
2022-10-02T01:47:22.420Z,5.03
2022-10-02T01:50:41.487Z,4.70
2022-10-02T01:53:33.044Z,5.82
2022-10-02T01:56:35.191Z,5.28
2022-10-02T01:59:32.878Z,4.47
2022-10-02T02:02:11.197Z,4.18
2022-10-02T02:04:57.700Z,4.18
2022-10-02T02:08:15.783Z,4.35
2022-10-02T02:11:04.418Z,4.32
2022-10-02T02:13:49.175Z,4.72
2022-10-02T02:16:42.689Z,4.95
2022-10-02T02:19:26.216Z,4.97
2022-10-02T02:22:19.551Z,4.35
2022-10-02T02:25:07.869Z,4.63
2022-10-02T02:27:44.114Z,4.53
2022-10-02T02:30:16.588Z,4.60
2022-10-02T02:32:57.042Z,4.82
2022-10-02T02:35:33.636Z,4.30
2022-10-02T02:38:17.656Z,3.58
2022-10-02T02:40:47.309Z,4.70
2022-10-02T02:44:00.941Z,4.35
2022-10-02T02:47:06.893Z,4.03
2022-10-02T02:49:58.599Z,5.40
2022-10-02T02:52:39.156Z,4.30
2022-10-02T02:55:19.594Z,4.47
2022-10-02T02:57:53.405Z,4.60
2022-10-02T03:00:22.939Z,3.63
2022-10-02T03:02:50.626Z,4.90
2022-10-02T03:05:19.410Z,5.40
2022-10-02T03:08:01.221Z,4.88
2022-10-02T03:10:53.368Z,4.15
2022-10-02T03:14:07.780Z,4.20
2022-10-02T03:17:07.204Z,3.60
2022-10-02T03:19:58.265Z,4.85
2022-10-02T03:23:01.088Z,4.40
2022-10-02T03:26:03.091Z,4.28
2022-10-02T03:28:55.414Z,4.40
2022-10-02T03:31:30.243Z,4.47
2022-10-02T03:34:03.234Z,4.60
2022-10-02T03:36:31.590Z,3.78
2022-10-02T03:39:25.325Z,4.60
2022-10-02T03:41:52.416Z,4.45
2022-10-02T03:44:19.093Z,4.43
2022-10-02T03:46:46.022Z,4.10
2022-10-02T03:49:12.646Z,4.65
2022-10-02T03:51:39.408Z,5.22
2022-10-02T03:54:20.572Z,4.70
2022-10-02T03:56:58.378Z,3.85
2022-10-02T04:00:03.170Z,4.78
2022-10-02T04:02:56.601Z,4.05
2022-10-02T04:05:48.609Z,5.15
2022-10-02T04:08:44.217Z,4.88
2022-10-02T04:11:32.416Z,4.63
2022-10-02T04:14:16.880Z,4.95
2022-10-02T04:17:15.847Z,4.28
2022-10-02T04:20:11.016Z,4.35
2022-10-02T04:23:01.328Z,4.20
2022-10-02T04:25:38.985Z,5.32
2022-10-02T04:28:19.727Z,4.63
2022-10-02T04:30:46.656Z,5.43
2022-10-02T04:33:22.187Z,6.28
2022-10-02T04:36:07.598Z,7.00
2022-10-02T04:39:29.516Z,7.35
2022-10-02T04:42:27.673Z,6.45
2022-10-02T04:45:19.840Z,6.55
2022-10-02T04:48:34.278Z,5.53
2022-10-02T04:51:45.065Z,5.45
2022-10-02T04:55:14.526Z,4.80
2022-10-02T04:58:12.544Z,5.10
2022-10-02T05:01:11.991Z,4.57
2022-10-02T05:04:13.512Z,4.63
2022-10-02T05:07:25.172Z,4.75
2022-10-02T05:10:34.425Z,4.38
2022-10-02T05:13:43.679Z,4.70
2022-10-02T05:16:41.799Z,4.03
2022-10-02T05:20:13.661Z,4.32
2022-10-02T05:23:14.922Z,5.10
2022-10-02T05:26:43.465Z,4.82
2022-10-02T05:33:33.339Z,4.45
2022-10-02T05:36:47.396Z,4.45
2022-10-02T05:39:27.127Z,5.35
2022-10-02T05:42:11.823Z,5.40
2022-10-02T05:44:49.665Z,5.32
2022-10-02T05:47:37.890Z,5.47
2022-10-02T05:50:34.574Z,7.28
2022-10-02T05:53:29.943Z,5.75
2022-10-02T05:56:19.216Z,6.35
2022-10-02T05:59:05.024Z,5.90
2022-10-02T06:04:39.462Z,5.20
2022-10-02T06:07:19.697Z,5.60
2022-10-02T06:10:12.960Z,5.38
2022-10-02T06:13:00.275Z,5.05
2022-10-02T06:15:52.960Z,5.65
2022-10-02T06:18:44.426Z,6.45
2022-10-02T06:21:40.433Z,6.13
2022-10-02T06:24:29.945Z,7.45
2022-10-02T06:33:26.332Z,6.45
2022-10-02T06:36:18.071Z,7.60
2022-10-02T06:39:27.486Z,6.10
2022-10-02T06:42:38.370Z,7.13
2022-10-02T06:45:42.827Z,6.20
2022-10-02T06:48:46.138Z,6.43
2022-10-02T06:55:33.031Z,5.90
2022-10-02T06:58:39.038Z,6.60
2022-10-02T07:05:04.698Z,5.78
2022-10-02T07:07:49.318Z,4.97
2022-10-02T07:11:00.921Z,4.78
2022-10-02T07:13:48.696Z,3.83
2022-10-02T07:16:40.030Z,4.55
2022-10-02T07:20:32.534Z,4.57
2022-10-02T07:23:49.637Z,3.67
2022-10-02T07:26:49.083Z,3.92
2022-10-02T07:29:38.520Z,3.60
2022-10-02T07:35:49.213Z,3.88
2022-10-02T07:39:06.906Z,3.90
2022-10-02T07:42:19.909Z,4.15
2022-10-02T07:45:05.901Z,4.63
2022-10-02T07:47:47.779Z,4.35
2022-10-02T07:53:56.046Z,3.83
2022-10-02T07:56:26.607Z,3.83
2022-10-02T08:01:56.045Z,4.70
2022-10-02T08:04:36.680Z,3.80
2022-10-02T08:07:06.738Z,4.25
2022-10-02T08:12:45.925Z,3.05
2022-10-02T08:15:20.651Z,3.22
2022-10-02T08:18:11.013Z,3.60
2022-10-02T08:20:49.487Z,3.60
2022-10-02T08:30:25.749Z,3.92
2022-10-02T08:32:54.711Z,4.65
2022-10-02T08:35:35.174Z,3.95
2022-10-02T08:38:40.502Z,3.78
2022-10-02T08:41:39.944Z,4.13
2022-10-02T08:44:52.436Z,4.28
2022-10-02T08:47:48.388Z,4.28
2022-10-02T08:58:12.678Z,3.58
2022-10-02T09:22:12.618Z,3.33
2022-10-02T09:25:49.425Z,3.40
2022-10-02T09:28:49.805Z,2.95
2022-10-02T09:32:34.610Z,3.25
2022-10-02T09:35:41.319Z,3.35
2022-10-02T09:38:39.080Z,3.95
2022-10-02T09:45:45.994Z,3.45
2022-10-02T09:49:07.502Z,3.90
2022-10-02T09:53:04.133Z,3.55
2022-10-02T10:12:51.975Z,3.90
2022-10-02T10:33:35.373Z,3.83
2022-10-02T10:37:14.432Z,3.42
2022-10-02T10:40:36.698Z,3.25
2022-10-02T10:47:20.159Z,3.08
2022-10-02T10:57:26.454Z,3.45
2022-10-02T11:04:40.114Z,3.15
2022-10-02T11:07:23.249Z,3.10
2022-10-02T11:10:20.299Z,4.13
2022-10-02T11:13:27.561Z,4.53
2022-10-02T11:16:33.708Z,3.70
2022-10-02T11:19:48.248Z,4.18
2022-10-02T11:46:53.441Z,2.65
2022-10-02T11:54:05.298Z,3.17
2022-10-02T11:57:00.695Z,3.97
2022-10-02T12:00:05.859Z,2.80
2022-10-02T12:28:03.716Z,3.72
2022-10-02T12:37:32.802Z,3.88
2022-10-02T12:40:43.705Z,3.92
2022-10-02T13:12:08.088Z,3.78
2022-10-02T13:15:28.687Z,3.95
2022-10-02T13:44:05.030Z,3.35
2022-10-02T13:47:22.617Z,3.15
2022-10-02T14:03:28.828Z,4.13
2022-10-02T14:06:06.545Z,5.00
2022-10-02T14:09:33.313Z,5.55
2022-10-02T14:12:57.774Z,3.67
2022-10-02T14:16:16.651Z,3.90
2022-10-02T14:28:28.622Z,3.42
2022-10-02T14:44:30.241Z,3.20
2022-10-02T14:47:46.543Z,3.70
2022-10-02T14:51:11.733Z,3.88
2022-10-02T14:57:50.620Z,3.58
2022-10-02T15:00:24.715Z,4.68
2022-10-02T15:06:01.256Z,3.30
2022-10-02T15:08:40.279Z,3.33
2022-10-02T15:11:30.682Z,3.60
2022-10-02T15:14:24.857Z,3.35
2022-10-02T15:17:48.809Z,4.20
2022-10-02T15:20:48.849Z,3.90
2022-10-02T15:23:44.250Z,3.58
2022-10-02T15:26:56.623Z,3.83
2022-10-02T15:30:02.195Z,3.47
2022-10-02T15:33:19.765Z,3.58
2022-10-02T15:36:51.666Z,3.92
2022-10-02T15:39:52.851Z,4.22
2022-10-02T15:43:43.468Z,4.03
2022-10-02T15:46:59.877Z,3.17
2022-10-02T15:50:52.640Z,3.70
2022-10-02T15:53:53.308Z,4.25
2022-10-02T15:56:50.069Z,3.97
2022-10-02T16:00:14.037Z,4.70
2022-10-02T16:03:22.517Z,4.28
2022-10-02T16:06:02.389Z,5.00
2022-10-02T16:09:59.231Z,4.18
2022-10-02T16:16:00.989Z,4.03
2022-10-02T16:22:19.073Z,4.63
2022-10-02T16:25:51.954Z,4.68
2022-10-02T16:28:49.412Z,4.88
2022-10-02T16:34:28.867Z,5.22
2022-10-02T16:46:55.076Z,4.55
2022-10-02T17:28:37.913Z,4.10
2022-10-02T17:31:06.198Z,5.20
2022-10-02T18:24:16.098Z,5.43
2022-10-02T18:31:08.377Z,5.65
2022-10-02T18:33:50.116Z,5.20
2022-10-02T18:39:41.683Z,5.18
2022-10-02T18:42:53.116Z,4.55
2022-10-02T19:09:01.858Z,4.53
2022-10-02T19:11:36.247Z,5.85
2022-10-02T19:14:30.097Z,4.57
2022-10-02T19:17:27.051Z,5.18
2022-10-02T19:19:55.779Z,5.32
2022-10-02T19:22:33.064Z,4.90
2022-10-02T19:25:16.416Z,6.05
2022-10-02T19:27:57.059Z,5.07
2022-10-02T19:30:33.221Z,5.30
2022-10-02T19:33:08.029Z,5.35
2022-10-02T19:35:44.383Z,4.72
2022-10-02T19:38:14.298Z,3.70
2022-10-02T19:40:42.544Z,3.65
2022-10-02T19:43:33.722Z,4.35
2022-10-02T19:46:08.416Z,4.93
2022-10-02T19:48:35.341Z,5.32
2022-10-02T19:51:08.028Z,4.32
2022-10-02T19:53:50.535Z,5.13
2022-10-02T19:56:35.135Z,4.50
2022-10-02T20:01:52.516Z,4.70
2022-10-02T20:04:31.220Z,5.45
2022-10-02T20:07:04.651Z,4.53
2022-10-02T20:09:51.153Z,4.93
2022-10-02T20:12:38.522Z,4.50
2022-10-02T20:16:00.239Z,4.00
2022-10-02T20:18:27.554Z,4.03
2022-10-02T20:21:15.601Z,4.25
2022-10-02T20:23:52.456Z,4.32
2022-10-02T20:26:27.634Z,4.38
2022-10-02T20:29:12.431Z,4.43
2022-10-02T20:31:58.430Z,6.78
2022-10-02T20:34:50.130Z,4.40
2022-10-02T20:37:29.564Z,5.28
2022-10-02T20:40:18.002Z,4.63
2022-10-02T20:43:51.213Z,5.75
2022-10-02T20:47:04.270Z,4.65
2022-10-02T20:50:03.471Z,4.97
2022-10-02T20:53:35.910Z,6.60
2022-10-02T20:56:40.094Z,4.20
2022-10-02T20:59:56.497Z,4.57
2022-10-02T21:03:06.084Z,6.60
2022-10-02T21:06:04.661Z,5.50
2022-10-02T21:09:14.514Z,5.00
2022-10-02T21:12:47.270Z,4.65
2022-10-02T21:16:15.914Z,4.60
2022-10-02T21:19:49.064Z,4.30
2022-10-02T21:22:47.931Z,4.97
2022-10-02T21:25:42.484Z,5.43
2022-10-02T21:29:02.389Z,5.90
2022-10-02T21:32:00.045Z,4.55
2022-10-02T21:34:55.858Z,4.65
2022-10-02T21:38:13.783Z,4.22
2022-10-02T21:41:09.223Z,4.45
2022-10-02T21:44:59.164Z,5.72
2022-10-02T21:48:06.946Z,4.82
2022-10-02T21:51:37.233Z,4.82
2022-10-02T21:54:47.032Z,4.63
2022-10-02T21:58:00.734Z,5.18
2022-10-02T22:00:31.420Z,4.47
2022-10-02T22:04:18.784Z,4.47
2022-10-02T22:07:14.635Z,3.97
2022-10-02T22:10:15.537Z,4.07
2022-10-02T22:13:43.751Z,5.43
2022-10-02T22:17:00.683Z,5.43
2022-10-02T22:20:45.404Z,4.88
2022-10-02T22:23:34.736Z,4.03
2022-10-02T22:26:48.776Z,4.43
2022-10-02T22:29:52.597Z,5.68
2022-10-02T22:33:11.517Z,4.90
2022-10-02T22:36:12.022Z,5.07
2022-10-02T22:38:40.917Z,4.03
2022-10-02T22:41:36.006Z,4.82
2022-10-02T22:44:20.352Z,6.15
2022-10-02T22:47:59.812Z,4.10
2022-10-02T22:50:56.728Z,4.70
2022-10-02T22:53:51.879Z,4.43
2022-10-02T22:56:45.574Z,4.93
2022-10-02T22:59:24.623Z,5.45
2022-10-02T23:02:20.183Z,4.65
2022-10-02T23:05:22.520Z,4.95
2022-10-02T23:08:11.594Z,5.43
2022-10-02T23:10:38.105Z,5.63
2022-10-02T23:13:35.371Z,4.93
2022-10-02T23:16:25.091Z,5.60
2022-10-02T23:19:21.703Z,5.55
2022-10-02T23:22:06.326Z,4.70
2022-10-02T23:28:07.088Z,4.85
2022-10-02T23:30:48.058Z,6.13
2022-10-02T23:33:38.958Z,6.60
2022-10-02T23:36:31.731Z,4.78
2022-10-02T23:39:28.753Z,4.28
2022-10-02T23:41:59.278Z,4.93
2022-10-02T23:45:19.823Z,3.25
2022-10-02T23:48:18.085Z,5.28
2022-10-02T23:51:29.503Z,3.80
2022-10-02T23:54:17.796Z,5.88
2022-10-02T23:57:03.278Z,4.65
